This is the latest recevied weather packets stored in our database for station/object PY2FLB-13. If no packets are shown the sender has not sent any weather packets the latest 10 day(s).
| Time | Temp. | Humidity | Pressure | Rain* | Wind** | Luminosity | Snow |
|---|---|---|---|---|---|---|---|
| 1777950768 | 25.56° C | 54% | 1017.1 hPa | - | - | - | - |
| 1777950469 | 25.56° C | 54% | 1017.2 hPa | - | - | - | - |
| 1777950169 | 25.56° C | 53% | 1017.2 hPa | - | - | - | - |
| 1777949868 | 25.56° C | 53% | 1017.1 hPa | - | - | - | - |
| 1777949568 | 26.11° C | 51% | 1017 hPa | - | - | - | - |
| 1777949268 | 25.56° C | 52% | 1017.1 hPa | - | - | - | - |
| 1777948968 | 25.56° C | 53% | 1017.2 hPa | - | - | - | - |
| 1777948668 | 25.56° C | 53% | 1017.1 hPa | - | - | - | - |
| 1777948368 | 25.56° C | 52% | 1017.1 hPa | - | - | - | - |
| 1777948068 | 26.67° C | 51% | 1016.9 hPa | - | - | - | - |
| 1777947768 | 26.11° C | 52% | 1017 hPa | - | - | - | - |
| 1777947468 | 26.11° C | 52% | 1016.9 hPa | - | - | - | - |
| 1777947168 | 25.56° C | 53% | 1017.1 hPa | - | - | - | - |
| 1777946868 | 25.56° C | 53% | 1017.1 hPa | - | - | - | - |
| 1777946568 | 26.67° C | 51% | 1016.9 hPa | - | - | - | - |
| 1777946268 | 25.56° C | 53% | 1017.1 hPa | - | - | - | - |
| 1777945968 | 25.56° C | 53% | 1017.2 hPa | - | - | - | - |
| 1777945669 | 25.56° C | 53% | 1017.2 hPa | - | - | - | - |
| 1777945368 | 25.56° C | 53% | 1017 hPa | - | - | - | - |
| 1777945068 | 26.11° C | 52% | 1016.9 hPa | - | - | - | - |
| 1777944768 | 26.67° C | 51% | 1016.7 hPa | - | - | - | - |
| 1777944468 | 26.11° C | 52% | 1016.8 hPa | - | - | - | - |
| 1777944168 | 26.11° C | 52% | 1016.7 hPa | - | - | - | - |
| 1777943868 | 26.11° C | 53% | 1016.7 hPa | - | - | - | - |
| 1777943568 | 26.11° C | 52% | 1016.7 hPa | - | - | - | - |
* Rain since midnight (hover to see other rain measurements)
** Current wind speed in m/s (hover to see current wind gust speed)